Aline, OK

4:00 PM CST on December 20, 2014 (GMT -0600)
Vance Air Force Base | Change Station
CLOSE
Current Station
Airport
Location: Enid Vance AFB,
Elevation: 1306 ft
Nearby Weather Stations

Elev 1306 ft 36.34 °N, 97.92 °W | Updated 2 minutes ago

Overcast
Overcast
44 °F
Feels Like 38 °F
N
14
Wind Variable Wind from South

Today
High -- | Low -- °F
--% Chance of Precip.
Yesterday
High -- | Low -- °F
Precip. -- in
7:41 AM 5:21 PM
Waning Crescent, 2% visible
Pressure 30.15 in
Visibility 10.0 miles
Clouds Overcast 1500 ft
Windchill 38 °F
Dew Point 39 °F
Humidity 81%
Rainfall 0.00 in
Snow Depth Not available.
UV 0 out of 12
Pollen 7.40 out of 12
Air Quality Not available.
Flu Activity Not available.
METAR KEND 202158Z AUTO 18012KT 10SM OVC015 07/04 A3012 RMK AO2 SLP209 T00680038 $

More Conditions Fewer Conditions

Pressure 30.15 in
Visibility 10.0 miles
Clouds Overcast 1500 ft
Windchill 38 °F
Dew Point 39 °F
Humidity 81%
Rainfall 0.00 in
Snow Depth Not available.
UV 0 out of 12
Pollen 7.40 out of 12
Air Quality Not available.
Flu Activity Not available.
METAR KEND 202158Z AUTO 18012KT 10SM OVC015 07/04 A3012 RMK AO2 SLP209 T00680038 $

More Conditions Fewer Conditions

10-Day Weather Forecast

Almanac

Astronomy

Dec. 20, 2014 Rise Set
Actual Time
Civil Twilight
Nautical Twilight
Astronomical Twilight
Moon
Length of Visible Light
Length of Day
Tomorrow will be .
, % of the Moon is Illuminated

Today's Extremes

State Highs State Lows

Community

WunderPhotos

Upload Photos

1,779,288 photos uploaded!

WunderBlogs® & News

Nearby

Air Quality

  Air Quality AQ Index Pollutant
Not available.

Snow Depth

Station Depth Elevation

Earthquake Activity

City Distance Mag. Time & Date
Minimum magnitude displayed is 2.5.

Coastal Water Temperatures

Place Temperature

Nearby Weather Stations